Time;durP1;ratioP1;P1;durP2;ratioP2;P2;SDS_P1;SDS_P2;PMS_P1;PMS_P2;Temp;Humidity;BMP_temperature;BMP_pressure;BME280_temperature;BME280_humidity;BME280_pressure;Samples;Min_cycle;Max_cycle;Signal;HPM_P1;HPM_P2
2023/02/04 00:00:48;;;;;;;1.95;0.68;;;;;;;;;;5012616;28;20255;-62
2023/02/04 00:03:15;;;;;;;1.77;0.80;;;;;;;;;;5013826;28;20619;-60
2023/02/04 00:05:41;;;;;;;1.15;0.40;;;;;;;;;;5015373;28;20174;-61
2023/02/04 00:08:07;;;;;;;1.80;0.55;;;;;;;;;;5018011;28;20173;-63
2023/02/04 00:10:33;;;;;;;2.38;0.60;;;;;;;;;;5019659;28;20270;-62
2023/02/04 00:12:59;;;;;;;1.95;0.60;;;;;;;;;;5017340;28;20196;-62
2023/02/04 00:15:25;;;;;;;1.30;0.40;;;;;;;;;;5015771;28;20185;-62
2023/02/04 00:17:51;;;;;;;2.60;0.82;;;;;;;;;;5014620;28;20228;-62
2023/02/04 00:20:18;;;;;;;1.08;0.50;;;;;;;;;;5012637;28;20249;-62
2023/02/04 00:22:44;;;;;;;2.45;0.70;;;;;;;;;;5012849;28;20547;-61
2023/02/04 00:25:10;;;;;;;1.60;0.50;;;;;;;;;;5012930;28;20162;-61
2023/02/04 00:27:37;;;;;;;1.50;0.50;;;;;;;;;;5012360;28;20496;-63
2023/02/04 00:30:03;;;;;;;1.15;0.30;;;;;;;;;;5012415;28;20663;-63
2023/02/04 00:32:29;;;;;;;1.13;0.40;;;;;;;;;;5012366;28;20175;-62
2023/02/04 00:34:55;;;;;;;0.50;0.40;;;;;;;;;;5012246;28;20482;-62
2023/02/04 00:37:23;;;;;;;1.23;0.55;;;;;;;;;;5012195;28;20551;-61
2023/02/04 00:39:49;;;;;;;1.48;0.50;;;;;;;;;;5011952;28;20585;-63
2023/02/04 00:42:15;;;;;;;1.75;0.40;;;;;;;;;;5012298;28;20163;-63
2023/02/04 00:44:41;;;;;;;0.50;0.40;;;;;;;;;;5012297;28;20174;-63
2023/02/04 00:47:08;;;;;;;1.48;0.40;;;;;;;;;;5013681;28;20177;-63
2023/02/04 00:49:34;;;;;;;1.45;0.40;;;;;;;;;;5015128;28;20509;-61
2023/02/04 00:52:01;;;;;;;1.70;0.57;;;;;;;;;;5015293;28;20178;-63
2023/02/04 00:54:27;;;;;;;1.95;0.63;;;;;;;;;;5015194;28;20174;-63
2023/02/04 00:56:53;;;;;;;1.30;0.40;;;;;;;;;;5015343;28;20170;-62
2023/02/04 00:59:19;;;;;;;1.60;0.68;;;;;;;;;;5015162;28;20203;-63
2023/02/04 01:01:45;;;;;;;1.63;0.90;;;;;;;;;;5015205;28;20162;-63
2023/02/04 01:04:11;;;;;;;1.08;0.70;;;;;;;;;;5015550;28;20183;-62
2023/02/04 01:06:37;;;;;;;2.20;0.65;;;;;;;;;;5015260;28;20255;-63
2023/02/04 01:09:03;;;;;;;1.95;0.50;;;;;;;;;;5014929;28;20588;-62
2023/02/04 01:11:30;;;;;;;2.85;0.60;;;;;;;;;;5015329;28;20624;-63
2023/02/04 01:13:56;;;;;;;1.77;0.40;;;;;;;;;;5015047;28;20538;-63
2023/02/04 01:16:22;;;;;;;2.55;0.43;;;;;;;;;;5015238;28;20177;-61
2023/02/04 01:18:48;;;;;;;1.30;0.50;;;;;;;;;;5015033;28;20198;-63
2023/02/04 01:21:14;;;;;;;1.60;0.50;;;;;;;;;;5015048;28;20226;-62
2023/02/04 01:23:40;;;;;;;2.35;0.50;;;;;;;;;;5015077;28;20189;-59
2023/02/04 01:26:06;;;;;;;1.35;0.50;;;;;;;;;;5014972;28;20296;-61
2023/02/04 01:28:32;;;;;;;1.42;0.47;;;;;;;;;;5013885;28;20178;-62
2023/02/04 01:30:58;;;;;;;1.92;0.70;;;;;;;;;;5015047;28;20182;-63
2023/02/04 01:33:24;;;;;;;3.17;0.57;;;;;;;;;;5033993;28;20178;-62
2023/02/04 01:35:50;;;;;;;0.80;0.50;;;;;;;;;;5035369;28;20166;-62
2023/02/04 01:38:16;;;;;;;0.40;0.32;;;;;;;;;;5019815;28;20189;-62
2023/02/04 01:40:42;;;;;;;2.53;0.60;;;;;;;;;;5014938;28;20587;-62
2023/02/04 01:43:10;;;;;;;0.88;0.30;;;;;;;;;;5014469;28;20269;-61
2023/02/04 01:45:36;;;;;;;0.82;0.50;;;;;;;;;;5014471;28;20179;-62
2023/02/04 01:48:04;;;;;;;1.58;0.50;;;;;;;;;;5014610;28;20235;-60
2023/02/04 01:50:30;;;;;;;0.63;0.40;;;;;;;;;;5014458;28;20178;-61
2023/02/04 01:52:56;;;;;;;0.68;0.40;;;;;;;;;;5015477;28;20178;-63
2023/02/04 01:55:25;;;;;;;0.77;0.55;;;;;;;;;;5026802;28;20187;-63
2023/02/04 01:57:52;;;;;;;1.75;0.47;;;;;;;;;;5035575;28;20240;-64
2023/02/04 02:00:30;;;;;;;2.92;0.40;;;;;;;;;;5030097;28;20220;-63
2023/02/04 02:02:56;;;;;;;1.52;0.40;;;;;;;;;;5025022;28;20186;-63
2023/02/04 02:05:32;;;;;;;1.17;0.40;;;;;;;;;;5020980;28;20228;-63
2023/02/04 02:07:59;;;;;;;1.30;0.55;;;;;;;;;;5021343;28;20184;-63
2023/02/04 02:10:25;;;;;;;0.98;0.40;;;;;;;;;;5015462;28;20200;-60
2023/02/04 02:12:53;;;;;;;1.42;0.47;;;;;;;;;;5014443;28;20226;-60
2023/02/04 02:15:19;;;;;;;2.25;0.45;;;;;;;;;;5014824;28;20231;-60
2023/02/04 02:17:45;;;;;;;2.85;0.20;;;;;;;;;;5014004;28;20265;-61
2023/02/04 02:20:12;;;;;;;1.00;0.43;;;;;;;;;;5014044;28;20198;-62
2023/02/04 02:22:38;;;;;;;0.85;0.40;;;;;;;;;;5013884;28;20253;-62
2023/02/04 02:25:08;;;;;;;0.75;0.30;;;;;;;;;;5014091;28;20235;-63
2023/02/04 02:27:34;;;;;;;0.35;0.35;;;;;;;;;;5013784;28;20166;-62
2023/02/04 02:30:01;;;;;;;0.98;0.50;;;;;;;;;;5013931;28;20265;-62
2023/02/04 02:32:27;;;;;;;0.52;0.30;;;;;;;;;;5014162;28;20198;-63
2023/02/04 02:34:53;;;;;;;0.93;0.30;;;;;;;;;;5013546;28;20569;-62
2023/02/04 02:37:19;;;;;;;0.55;0.43;;;;;;;;;;5013602;28;20170;-63
2023/02/04 02:39:45;;;;;;;0.50;0.40;;;;;;;;;;5013386;28;20197;-63
2023/02/04 02:42:13;;;;;;;1.83;0.32;;;;;;;;;;5013675;28;20593;-63
2023/02/04 02:44:39;;;;;;;0.65;0.45;;;;;;;;;;5013383;28;20597;-63
2023/02/04 02:47:05;;;;;;;0.43;0.40;;;;;;;;;;5013267;28;20613;-61
2023/02/04 02:49:33;;;;;;;1.33;0.40;;;;;;;;;;5013340;28;20166;-63
2023/02/04 02:51:59;;;;;;;2.10;0.45;;;;;;;;;;5013254;28;20166;-62
2023/02/04 02:54:27;;;;;;;0.68;0.38;;;;;;;;;;5013410;28;20265;-61
2023/02/04 02:56:54;;;;;;;0.40;0.40;;;;;;;;;;5013860;28;20238;-62
2023/02/04 02:59:20;;;;;;;0.70;0.40;;;;;;;;;;5013879;28;20263;-62
2023/02/04 03:01:48;;;;;;;2.45;0.35;;;;;;;;;;5014148;28;20181;-63
2023/02/04 03:04:14;;;;;;;0.50;0.38;;;;;;;;;;5013173;28;20235;-63
2023/02/04 03:06:42;;;;;;;0.93;0.55;;;;;;;;;;5013297;28;20171;-63
2023/02/04 03:09:08;;;;;;;0.85;0.40;;;;;;;;;;5012774;28;20508;-63
2023/02/04 03:11:34;;;;;;;0.47;0.40;;;;;;;;;;5013014;28;20623;-63
2023/02/04 03:14:00;;;;;;;1.45;0.40;;;;;;;;;;5013183;28;20269;-62
2023/02/04 03:16:27;;;;;;;0.90;0.38;;;;;;;;;;5012954;28;20174;-62
2023/02/04 03:18:55;;;;;;;0.32;0.22;;;;;;;;;;5012895;28;20209;-63
2023/02/04 03:21:21;;;;;;;0.98;0.40;;;;;;;;;;5012850;28;20509;-61
2023/02/04 03:23:47;;;;;;;0.55;0.40;;;;;;;;;;5012847;28;20166;-63
2023/02/04 03:26:13;;;;;;;0.57;0.40;;;;;;;;;;5013268;28;20176;-63
2023/02/04 03:28:39;;;;;;;1.45;0.40;;;;;;;;;;5012834;28;20474;-63
2023/02/04 03:31:06;;;;;;;1.10;0.40;;;;;;;;;;5013168;28;20162;-62
2023/02/04 03:33:34;;;;;;;0.90;0.35;;;;;;;;;;5012885;28;20174;-62
2023/02/04 03:36:01;;;;;;;0.65;0.32;;;;;;;;;;5012934;28;20175;-62
2023/02/04 03:38:27;;;;;;;1.77;0.32;;;;;;;;;;5014730;28;20501;-62
2023/02/04 03:40:53;;;;;;;2.83;0.45;;;;;;;;;;5017120;28;20193;-62
2023/02/04 03:43:21;;;;;;;1.10;0.40;;;;;;;;;;5016959;28;20163;-62
2023/02/04 03:45:48;;;;;;;1.80;0.40;;;;;;;;;;5015385;28;20171;-62
2023/02/04 03:48:14;;;;;;;0.60;0.50;;;;;;;;;;5015233;28;20345;-62
2023/02/04 03:50:40;;;;;;;1.58;0.50;;;;;;;;;;5015350;28;20252;-62
2023/02/04 03:53:06;;;;;;;1.42;0.50;;;;;;;;;;5014952;28;20178;-61
2023/02/04 03:55:32;;;;;;;1.35;0.32;;;;;;;;;;5013286;28;20261;-63
2023/02/04 03:57:58;;;;;;;1.35;0.43;;;;;;;;;;5012789;28;20281;-61
2023/02/04 04:00:24;;;;;;;1.23;0.50;;;;;;;;;;5012644;28;20213;-61
2023/02/04 04:02:50;;;;;;;1.65;0.43;;;;;;;;;;5012644;28;20170;-61
2023/02/04 04:05:16;;;;;;;1.77;0.40;;;;;;;;;;5012454;28;20188;-63
2023/02/04 04:07:44;;;;;;;1.92;0.52;;;;;;;;;;5012728;28;20175;-63
2023/02/04 04:10:10;;;;;;;1.83;0.50;;;;;;;;;;5012366;28;20181;-63
2023/02/04 04:12:36;;;;;;;0.63;0.50;;;;;;;;;;5012515;28;20174;-63
2023/02/04 04:15:02;;;;;;;2.53;0.55;;;;;;;;;;5012546;28;20469;-62
2023/02/04 04:17:28;;;;;;;1.80;0.50;;;;;;;;;;5012590;28;20231;-63
2023/02/04 04:19:54;;;;;;;0.50;0.40;;;;;;;;;;5012318;28;20198;-63
2023/02/04 04:22:20;;;;;;;3.03;0.80;;;;;;;;;;5014624;28;20177;-63
2023/02/04 04:24:46;;;;;;;1.25;0.50;;;;;;;;;;5015983;28;20179;-61
2023/02/04 04:27:12;;;;;;;1.35;0.50;;;;;;;;;;5033372;28;20254;-62
2023/02/04 04:29:38;;;;;;;2.63;0.60;;;;;;;;;;5035204;28;20186;-63
2023/02/04 04:32:04;;;;;;;2.38;0.63;;;;;;;;;;5021391;28;20174;-62
2023/02/04 04:34:30;;;;;;;2.63;0.50;;;;;;;;;;5016504;28;20174;-62
2023/02/04 04:36:57;;;;;;;1.40;0.60;;;;;;;;;;5015614;28;20166;-61
2023/02/04 04:39:23;;;;;;;2.50;0.40;;;;;;;;;;5015666;28;20174;-60
2023/02/04 04:41:50;;;;;;;1.77;0.60;;;;;;;;;;5015825;28;20170;-60
2023/02/04 04:44:16;;;;;;;2.67;0.47;;;;;;;;;;5015725;28;20163;-61
2023/02/04 04:46:42;;;;;;;3.92;0.40;;;;;;;;;;5015641;28;20166;-63
2023/02/04 04:49:08;;;;;;;1.35;0.50;;;;;;;;;;5015664;28;20174;-62
2023/02/04 04:51:34;;;;;;;1.58;0.40;;;;;;;;;;5015517;28;20181;-60
2023/02/04 04:54:00;;;;;;;0.57;0.38;;;;;;;;;;5015634;28;20174;-61
2023/02/04 04:56:26;;;;;;;2.55;0.47;;;;;;;;;;5015461;28;20291;-61
2023/02/04 04:58:52;;;;;;;1.55;0.60;;;;;;;;;;5015394;28;20174;-61
2023/02/04 05:01:20;;;;;;;0.77;0.50;;;;;;;;;;5015051;28;20202;-61
2023/02/04 05:03:46;;;;;;;2.65;0.50;;;;;;;;;;5015373;28;20520;-62
2023/02/04 05:06:12;;;;;;;2.58;0.65;;;;;;;;;;5014989;28;20672;-60
2023/02/04 05:08:38;;;;;;;3.90;0.73;;;;;;;;;;5015548;28;20261;-63
2023/02/04 05:11:04;;;;;;;0.60;0.47;;;;;;;;;;5015012;28;20511;-63
2023/02/04 05:13:30;;;;;;;4.47;0.47;;;;;;;;;;5015253;28;20181;-63
2023/02/04 05:15:58;;;;;;;1.85;0.63;;;;;;;;;;5014748;28;20178;-63
2023/02/04 05:18:24;;;;;;;1.38;0.50;;;;;;;;;;5015168;28;20170;-63
2023/02/04 05:20:50;;;;;;;1.35;0.57;;;;;;;;;;5014716;28;20195;-62
2023/02/04 05:23:16;;;;;;;0.80;0.32;;;;;;;;;;5015298;28;20215;-62
2023/02/04 05:25:42;;;;;;;1.92;0.40;;;;;;;;;;5015434;28;20174;-63
2023/02/04 05:28:08;;;;;;;1.67;0.70;;;;;;;;;;5015003;28;20570;-63
2023/02/04 05:30:34;;;;;;;2.28;0.60;;;;;;;;;;5014432;28;20222;-63
2023/02/04 05:32:59;;;;;;;0.45;0.32;;;;;;;;;;5027048;28;20166;-63
2023/02/04 05:35:25;;;;;;;1.42;0.60;;;;;;;;;;5034872;28;20158;-63
2023/02/04 05:37:51;;;;;;;1.30;0.50;;;;;;;;;;5019675;28;20190;-63
2023/02/04 05:40:17;;;;;;;1.50;0.50;;;;;;;;;;5018679;28;20194;-63
2023/02/04 05:42:43;;;;;;;3.00;0.70;;;;;;;;;;5017695;28;20210;-63
2023/02/04 05:45:13;;;;;;;0.57;0.47;;;;;;;;;;5015918;28;20269;-63
2023/02/04 05:47:40;;;;;;;0.95;0.50;;;;;;;;;;5015725;28;20171;-61
2023/02/04 05:50:06;;;;;;;1.48;0.85;;;;;;;;;;5014934;28;20234;-61
2023/02/04 05:52:32;;;;;;;0.50;0.40;;;;;;;;;;5014917;28;20170;-62
2023/02/04 05:54:58;;;;;;;2.28;0.60;;;;;;;;;;5014520;28;20167;-62
2023/02/04 05:57:25;;;;;;;3.75;0.60;;;;;;;;;;5014689;28;20181;-62
2023/02/04 05:59:51;;;;;;;1.13;0.60;;;;;;;;;;5014015;28;20194;-63
2023/02/04 06:02:18;;;;;;;0.95;0.50;;;;;;;;;;5013347;28;20181;-62
2023/02/04 06:04:44;;;;;;;2.97;0.55;;;;;;;;;;5014436;28;20171;-62
2023/02/04 06:07:10;;;;;;;1.15;0.68;;;;;;;;;;5014193;28;20501;-63
2023/02/04 06:09:36;;;;;;;0.47;0.40;;;;;;;;;;5014501;28;20162;-60
2023/02/04 06:12:02;;;;;;;0.70;0.45;;;;;;;;;;5014333;28;20167;-60
2023/02/04 06:14:28;;;;;;;0.30;0.30;;;;;;;;;;5015301;28;20189;-61
2023/02/04 06:16:54;;;;;;;1.35;0.60;;;;;;;;;;5014296;28;20511;-60
2023/02/04 06:19:20;;;;;;;2.63;0.50;;;;;;;;;;5014349;28;20597;-61
2023/02/04 06:21:45;;;;;;;0.70;0.60;;;;;;;;;;5013961;28;20194;-60
2023/02/04 06:24:11;;;;;;;0.50;0.50;;;;;;;;;;5014756;28;20201;-62
2023/02/04 06:26:38;;;;;;;0.75;0.45;;;;;;;;;;5013384;28;20177;-62
2023/02/04 06:29:03;;;;;;;0.65;0.45;;;;;;;;;;5014558;28;20251;-61
2023/02/04 06:31:30;;;;;;;0.80;0.50;;;;;;;;;;5013910;28;20217;-61
2023/02/04 06:33:56;;;;;;;1.58;0.60;;;;;;;;;;5014157;28;20247;-61
2023/02/04 06:36:22;;;;;;;1.48;0.60;;;;;;;;;;5012885;28;20181;-62
2023/02/04 06:38:49;;;;;;;0.50;0.50;;;;;;;;;;5013090;28;20177;-64
2023/02/04 06:41:15;;;;;;;2.42;0.60;;;;;;;;;;5013839;28;20197;-63
2023/02/04 06:43:41;;;;;;;1.02;0.60;;;;;;;;;;5012943;28;20197;-62
2023/02/04 06:46:07;;;;;;;1.75;0.65;;;;;;;;;;5012522;28;20257;-61
2023/02/04 06:48:33;;;;;;;0.82;0.52;;;;;;;;;;5014325;28;20167;-62
2023/02/04 06:50:59;;;;;;;0.40;0.40;;;;;;;;;;5013510;28;20571;-62
2023/02/04 06:53:25;;;;;;;1.42;0.70;;;;;;;;;;5013907;28;20180;-63
2023/02/04 06:55:51;;;;;;;1.52;0.50;;;;;;;;;;5013482;28;20185;-62
2023/02/04 06:58:17;;;;;;;1.58;0.75;;;;;;;;;;5013331;28;20177;-62
2023/02/04 07:00:43;;;;;;;1.75;0.70;;;;;;;;;;5013399;28;20226;-63
2023/02/04 07:03:10;;;;;;;1.25;0.90;;;;;;;;;;5013405;28;20180;-62
2023/02/04 07:05:36;;;;;;;0.60;0.50;;;;;;;;;;5013202;28;20170;-62
2023/02/04 07:08:01;;;;;;;0.60;0.40;;;;;;;;;;5013341;28;20182;-62
2023/02/04 07:10:27;;;;;;;1.00;0.50;;;;;;;;;;5014186;28;20186;-63
2023/02/04 07:12:53;;;;;;;0.50;0.50;;;;;;;;;;5018416;28;20196;-61
2023/02/04 07:15:19;;;;;;;2.20;0.68;;;;;;;;;;5018089;28;20178;-63
2023/02/04 07:17:46;;;;;;;0.95;0.50;;;;;;;;;;5019678;28;20173;-61
2023/02/04 07:20:12;;;;;;;2.78;0.77;;;;;;;;;;5016751;28;20316;-61
2023/02/04 07:22:38;;;;;;;0.63;0.60;;;;;;;;;;5013924;28;20166;-62
2023/02/04 07:25:04;;;;;;;1.20;0.60;;;;;;;;;;5015181;28;20162;-62
2023/02/04 07:27:30;;;;;;;0.80;0.47;;;;;;;;;;5013840;28;20271;-62
2023/02/04 07:29:58;;;;;;;0.90;0.50;;;;;;;;;;5013010;28;20182;-63
2023/02/04 07:32:24;;;;;;;3.17;0.80;;;;;;;;;;5013193;28;20174;-62
2023/02/04 07:34:49;;;;;;;1.35;0.60;;;;;;;;;;5013170;28;20564;-62
2023/02/04 07:37:15;;;;;;;0.85;0.52;;;;;;;;;;5013004;28;20498;-62
2023/02/04 07:39:44;;;;;;;1.80;0.47;;;;;;;;;;5012981;28;20503;-63
2023/02/04 07:42:10;;;;;;;1.05;0.65;;;;;;;;;;5012845;28;20159;-62
2023/02/04 07:44:36;;;;;;;1.55;0.50;;;;;;;;;;5013043;28;20242;-61
2023/02/04 07:47:02;;;;;;;0.88;0.52;;;;;;;;;;5012843;28;20166;-63
2023/02/04 07:49:30;;;;;;;2.45;0.68;;;;;;;;;;5012805;28;20166;-62
2023/02/04 07:51:56;;;;;;;2.45;0.50;;;;;;;;;;5012911;28;20170;-62
2023/02/04 07:54:22;;;;;;;1.00;0.73;;;;;;;;;;5012902;28;20302;-62
2023/02/04 07:56:48;;;;;;;1.40;0.50;;;;;;;;;;5012220;28;20632;-62
2023/02/04 07:59:14;;;;;;;1.35;0.57;;;;;;;;;;5012880;28;20170;-62
2023/02/04 08:01:40;;;;;;;0.65;0.40;;;;;;;;;;5012655;28;20725;-62
2023/02/04 08:04:06;;;;;;;1.33;0.45;;;;;;;;;;5012928;28;20486;-62
2023/02/04 08:06:32;;;;;;;2.67;0.60;;;;;;;;;;5013222;28;20548;-62
2023/02/04 08:08:58;;;;;;;0.75;0.40;;;;;;;;;;5013462;28;20186;-62
2023/02/04 08:11:25;;;;;;;1.13;0.43;;;;;;;;;;5012679;28;20211;-63
2023/02/04 08:13:51;;;;;;;2.33;0.70;;;;;;;;;;5012632;28;20178;-64
2023/02/04 08:16:17;;;;;;;0.60;0.40;;;;;;;;;;5012689;28;20509;-63
2023/02/04 08:18:43;;;;;;;0.70;0.40;;;;;;;;;;5011883;28;20182;-63
2023/02/04 08:21:11;;;;;;;0.38;0.35;;;;;;;;;;5012765;28;20189;-63
2023/02/04 08:23:40;;;;;;;0.85;0.50;;;;;;;;;;5012295;28;20178;-62
2023/02/04 08:26:10;;;;;;;0.93;0.47;;;;;;;;;;5012572;28;20167;-63
2023/02/04 08:28:36;;;;;;;1.58;0.50;;;;;;;;;;5012327;28;20166;-62
2023/02/04 08:31:02;;;;;;;0.60;0.45;;;;;;;;;;5012400;28;20178;-63
2023/02/04 08:33:28;;;;;;;3.90;1.15;;;;;;;;;;5011979;28;20170;-62
2023/02/04 08:35:54;;;;;;;1.42;0.47;;;;;;;;;;5012132;28;20213;-63
2023/02/04 08:38:20;;;;;;;0.95;0.60;;;;;;;;;;5012615;28;20182;-63
2023/02/04 08:40:46;;;;;;;1.60;0.50;;;;;;;;;;5012276;28;20190;-63
2023/02/04 08:43:12;;;;;;;1.58;0.45;;;;;;;;;;5012107;28;20170;-63
2023/02/04 08:45:40;;;;;;;0.73;0.43;;;;;;;;;;5012242;28;20163;-63
2023/02/04 08:48:08;;;;;;;1.88;0.50;;;;;;;;;;5012278;28;20166;-63
2023/02/04 08:50:34;;;;;;;0.98;0.32;;;;;;;;;;5012387;28;20186;-63
2023/02/04 08:53:00;;;;;;;0.93;0.40;;;;;;;;;;5011273;28;20534;-63
2023/02/04 08:55:27;;;;;;;0.50;0.35;;;;;;;;;;5011912;28;20185;-63
2023/02/04 08:57:53;;;;;;;1.27;0.40;;;;;;;;;;5012189;28;20189;-62
2023/02/04 09:00:19;;;;;;;1.13;0.50;;;;;;;;;;5011762;28;20202;-63
2023/02/04 09:02:45;;;;;;;1.45;0.70;;;;;;;;;;5012084;28;20169;-63
2023/02/04 09:05:11;;;;;;;4.13;0.50;;;;;;;;;;5012832;28;20163;-62
2023/02/04 09:07:37;;;;;;;0.93;0.60;;;;;;;;;;5013538;28;20611;-61
2023/02/04 09:10:03;;;;;;;1.10;0.68;;;;;;;;;;5015781;28;20170;-63
2023/02/04 09:12:29;;;;;;;1.10;0.50;;;;;;;;;;5023261;28;20234;-61
2023/02/04 09:14:55;;;;;;;6.28;3.67;;;;;;;;;;5031936;28;20182;-63
2023/02/04 09:17:21;;;;;;;3.08;1.42;;;;;;;;;;5030664;28;20641;-64
2023/02/04 09:19:47;;;;;;;1.42;0.75;;;;;;;;;;5025279;28;20174;-63
2023/02/04 09:22:14;;;;;;;0.90;0.60;;;;;;;;;;5023311;28;20196;-63
2023/02/04 09:24:40;;;;;;;2.22;0.52;;;;;;;;;;5020785;28;20180;-63
2023/02/04 09:27:06;;;;;;;1.20;0.55;;;;;;;;;;5020086;28;20205;-62
2023/02/04 09:29:32;;;;;;;1.00;0.50;;;;;;;;;;5015672;28;20159;-62
2023/02/04 09:31:59;;;;;;;0.95;0.57;;;;;;;;;;5015658;28;20166;-61
2023/02/04 09:34:25;;;;;;;0.95;0.65;;;;;;;;;;5014232;28;20193;-61
2023/02/04 09:36:52;;;;;;;1.13;0.50;;;;;;;;;;5015257;28;20185;-61
2023/02/04 09:39:18;;;;;;;0.40;0.30;;;;;;;;;;5015035;28;20178;-60
2023/02/04 09:41:43;;;;;;;1.85;0.60;;;;;;;;;;5015016;28;20198;-63
2023/02/04 09:44:15;;;;;;;1.88;0.70;;;;;;;;;;5015300;28;20169;-62
2023/02/04 09:46:43;;;;;;;1.42;0.60;;;;;;;;;;5015031;28;20220;-63
2023/02/04 09:49:09;;;;;;;1.45;0.57;;;;;;;;;;5014932;28;20213;-63
2023/02/04 09:51:35;;;;;;;2.65;0.50;;;;;;;;;;5014606;28;20639;-64
2023/02/04 09:54:15;;;;;;;1.55;0.70;;;;;;;;;;5017101;28;20543;-62
2023/02/04 09:56:42;;;;;;;1.00;0.40;;;;;;;;;;5019395;28;20252;-63
2023/02/04 09:59:15;;;;;;;0.98;0.50;;;;;;;;;;5020496;28;20170;-61
2023/02/04 10:01:41;;;;;;;0.63;0.47;;;;;;;;;;5016513;28;20183;-63
2023/02/04 10:04:12;;;;;;;0.43;0.40;;;;;;;;;;5014525;28;20254;-63
2023/02/04 10:06:38;;;;;;;1.38;0.47;;;;;;;;;;5014457;28;20166;-61
2023/02/04 10:09:04;;;;;;;0.77;0.30;;;;;;;;;;5014472;28;20257;-63
2023/02/04 10:11:34;;;;;;;0.52;0.32;;;;;;;;;;5014600;28;20193;-63
2023/02/04 10:14:00;;;;;;;1.40;0.40;;;;;;;;;;5014905;28;20265;-63
2023/02/04 10:16:33;;;;;;;0.88;0.40;;;;;;;;;;5014286;28;20186;-61
2023/02/04 10:19:06;;;;;;;0.60;0.40;;;;;;;;;;5013761;28;20265;-61
2023/02/04 10:21:34;;;;;;;1.33;0.20;;;;;;;;;;5015163;28;20255;-60
2023/02/04 10:24:02;;;;;;;0.70;0.38;;;;;;;;;;5014393;28;20273;-60
2023/02/04 10:26:30;;;;;;;0.70;0.30;;;;;;;;;;5014314;28;20206;-62
2023/02/04 10:29:06;;;;;;;0.40;0.30;;;;;;;;;;5014624;28;20177;-60
2023/02/04 10:31:36;;;;;;;0.43;0.30;;;;;;;;;;5013986;28;20197;-61
2023/02/04 10:34:13;;;;;;;0.82;0.40;;;;;;;;;;5014037;28;20175;-61
2023/02/04 10:36:40;;;;;;;1.58;0.60;;;;;;;;;;5014480;28;20193;-62
2023/02/04 10:39:17;;;;;;;1.13;0.60;;;;;;;;;;5014014;28;20269;-62
2023/02/04 10:41:48;;;;;;;0.90;0.57;;;;;;;;;;5014034;28;20196;-63
2023/02/04 10:44:16;;;;;;;0.88;0.60;;;;;;;;;;5013749;28;20265;-62
2023/02/04 10:46:42;;;;;;;1.23;0.45;;;;;;;;;;5013714;28;20166;-63
2023/02/04 10:49:18;;;;;;;0.45;0.30;;;;;;;;;;5013659;28;20243;-63
2023/02/04 10:51:44;;;;;;;0.47;0.30;;;;;;;;;;5014250;28;20170;-62
2023/02/04 10:54:30;;;;;;;0.85;0.40;;;;;;;;;;5015727;28;20506;-61
2023/02/04 10:57:05;;;;;;;0.82;0.30;;;;;;;;;;5015659;28;20212;-63
2023/02/04 10:59:31;;;;;;;0.55;0.40;;;;;;;;;;5015576;28;20673;-62
2023/02/04 11:01:57;;;;;;;0.55;0.40;;;;;;;;;;5015747;28;20596;-63
2023/02/04 11:04:24;;;;;;;1.80;0.50;;;;;;;;;;5015548;28;20170;-63
2023/02/04 11:06:51;;;;;;;0.68;0.40;;;;;;;;;;5015299;28;20167;-61
2023/02/04 11:09:17;;;;;;;1.02;0.30;;;;;;;;;;5013315;28;20167;-63
2023/02/04 11:11:48;;;;;;;0.60;0.40;;;;;;;;;;5013259;28;20185;-63
2023/02/04 11:14:27;;;;;;;0.50;0.50;;;;;;;;;;5013182;28;20680;-63
2023/02/04 11:16:59;;;;;;;1.80;0.60;;;;;;;;;;5013262;28;20479;-62
2023/02/04 11:19:51;;;;;;;0.85;0.60;;;;;;;;;;5013325;28;20239;-63
2023/02/04 11:22:22;;;;;;;0.70;0.40;;;;;;;;;;5015575;28;20661;-63
2023/02/04 11:24:49;;;;;;;0.65;0.45;;;;;;;;;;5013188;28;20174;-63
2023/02/04 11:27:20;;;;;;;0.38;0.30;;;;;;;;;;5012953;28;20677;-63
2023/02/04 11:29:46;;;;;;;0.75;0.40;;;;;;;;;;5013195;28;20181;-62
2023/02/04 11:32:31;;;;;;;2.38;0.63;;;;;;;;;;5012960;28;20175;-63
2023/02/04 11:35:12;;;;;;;1.20;0.55;;;;;;;;;;5012774;28;20166;-62
2023/02/04 11:37:40;;;;;;;0.88;0.60;;;;;;;;;;5012929;28;20535;-63
2023/02/04 11:40:25;;;;;;;0.50;0.50;;;;;;;;;;5011864;28;20194;-63
2023/02/04 11:42:56;;;;;;;0.63;0.35;;;;;;;;;;5013074;28;20472;-63
2023/02/04 11:45:35;;;;;;;1.15;0.43;;;;;;;;;;5012957;28;20514;-61
2023/02/04 11:48:03;;;;;;;0.80;0.55;;;;;;;;;;5012860;28;20177;-62
2023/02/04 11:50:30;;;;;;;0.75;0.55;;;;;;;;;;5012734;28;20545;-63
2023/02/04 11:52:58;;;;;;;1.65;0.40;;;;;;;;;;5012467;28;20612;-62
2023/02/04 11:55:25;;;;;;;0.93;0.65;;;;;;;;;;5012783;28;20176;-63
2023/02/04 11:57:55;;;;;;;0.75;0.60;;;;;;;;;;5012748;28;20273;-62
2023/02/04 12:00:23;;;;;;;0.60;0.52;;;;;;;;;;5012242;28;20220;-63
2023/02/04 12:03:10;;;;;;;1.48;0.70;;;;;;;;;;5012774;28;20245;-63
2023/02/04 12:05:41;;;;;;;0.88;0.50;;;;;;;;;;5024705;28;20569;-63
2023/02/04 12:08:11;;;;;;;0.95;0.60;;;;;;;;;;5012649;28;20174;-62
2023/02/04 12:10:37;;;;;;;1.63;0.70;;;;;;;;;;5012503;28;20244;-62
2023/02/04 12:13:11;;;;;;;1.27;0.60;;;;;;;;;;5013070;28;20185;-61
2023/02/04 12:15:38;;;;;;;1.75;0.40;;;;;;;;;;5012769;28;20166;-60
2023/02/04 12:18:07;;;;;;;0.85;0.55;;;;;;;;;;5013131;28;20220;-62
2023/02/04 12:20:34;;;;;;;0.50;0.50;;;;;;;;;;5012280;28;20197;-62
2023/02/04 12:23:00;;;;;;;1.27;0.73;;;;;;;;;;5012485;28;20591;-63
2023/02/04 12:25:26;;;;;;;0.98;0.52;;;;;;;;;;5012506;28;20194;-63
2023/02/04 12:27:55;;;;;;;1.20;0.40;;;;;;;;;;5012145;28;20174;-63
2023/02/04 12:30:24;;;;;;;0.90;0.30;;;;;;;;;;5012336;28;20266;-62
2023/02/04 12:32:50;;;;;;;0.77;0.40;;;;;;;;;;5012345;28;20178;-63
2023/02/04 12:35:17;;;;;;;2.05;0.60;;;;;;;;;;5012891;28;20626;-62
2023/02/04 12:37:43;;;;;;;0.75;0.52;;;;;;;;;;5012248;28;20562;-62
2023/02/04 12:40:14;;;;;;;1.35;0.60;;;;;;;;;;5011884;28;20281;-63
2023/02/04 12:42:40;;;;;;;0.85;0.60;;;;;;;;;;5023664;28;20219;-63
2023/02/04 12:45:06;;;;;;;0.55;0.55;;;;;;;;;;5030654;28;20170;-63
2023/02/04 12:47:32;;;;;;;1.35;0.60;;;;;;;;;;5024704;28;20178;-63
2023/02/04 12:49:58;;;;;;;2.13;0.60;;;;;;;;;;5015515;28;20270;-64
2023/02/04 12:52:24;;;;;;;0.95;0.60;;;;;;;;;;5015298;28;20181;-64
2023/02/04 12:54:50;;;;;;;1.40;0.60;;;;;;;;;;5015262;28;20624;-62
2023/02/04 12:57:18;;;;;;;1.73;0.45;;;;;;;;;;5016845;28;20203;-60
2023/02/04 12:59:44;;;;;;;1.58;0.60;;;;;;;;;;5015068;28;20639;-63
2023/02/04 13:02:10;;;;;;;0.95;0.63;;;;;;;;;;5030223;28;20170;-62
2023/02/04 13:04:39;;;;;;;1.42;0.52;;;;;;;;;;5034861;28;20165;-63
2023/02/04 13:07:06;;;;;;;3.85;0.82;;;;;;;;;;5033516;28;20226;-63
2023/02/04 13:09:34;;;;;;;1.60;0.88;;;;;;;;;;5029275;28;20175;-63
2023/02/04 13:12:00;;;;;;;0.77;0.60;;;;;;;;;;5027549;28;20227;-62
2023/02/04 13:14:26;;;;;;;0.95;0.70;;;;;;;;;;5025970;28;20170;-62
2023/02/04 13:16:53;;;;;;;1.10;0.70;;;;;;;;;;5025774;28;20178;-62
2023/02/04 13:19:20;;;;;;;2.22;1.00;;;;;;;;;;5020121;28;20178;-63
2023/02/04 13:21:46;;;;;;;1.60;0.70;;;;;;;;;;5018580;28;20226;-62
2023/02/04 13:24:12;;;;;;;1.50;0.82;;;;;;;;;;5017743;28;20242;-61
2023/02/04 13:26:38;;;;;;;2.15;1.60;;;;;;;;;;5016426;28;20162;-62
2023/02/04 13:29:04;;;;;;;1.38;0.70;;;;;;;;;;5016414;28;20162;-63
2023/02/04 13:31:29;;;;;;;2.92;0.63;;;;;;;;;;5016411;28;20208;-62
2023/02/04 13:33:55;;;;;;;2.08;0.60;;;;;;;;;;5014773;28;20163;-63
2023/02/04 13:36:21;;;;;;;0.68;0.55;;;;;;;;;;5014895;28;20166;-61
2023/02/04 13:38:47;;;;;;;1.38;0.70;;;;;;;;;;5014988;28;20157;-62
2023/02/04 13:41:13;;;;;;;1.38;0.52;;;;;;;;;;5014761;28;20190;-63
2023/02/04 13:43:39;;;;;;;0.57;0.47;;;;;;;;;;5014955;28;20230;-63
2023/02/04 13:46:05;;;;;;;0.88;0.60;;;;;;;;;;5014870;28;20190;-63
2023/02/04 13:48:32;;;;;;;1.38;0.50;;;;;;;;;;5014795;28;20170;-63
2023/02/04 13:50:59;;;;;;;1.48;0.60;;;;;;;;;;5015466;28;20193;-62
2023/02/04 13:53:29;;;;;;;0.90;0.60;;;;;;;;;;5014718;28;20170;-62
2023/02/04 13:55:55;;;;;;;1.73;0.65;;;;;;;;;;5014583;28;20194;-63
2023/02/04 13:58:21;;;;;;;0.77;0.60;;;;;;;;;;5015328;28;20275;-64
2023/02/04 14:00:47;;;;;;;1.52;0.60;;;;;;;;;;5014242;28;20251;-62
2023/02/04 14:03:13;;;;;;;2.10;0.70;;;;;;;;;;5014962;28;20162;-63
2023/02/04 14:05:39;;;;;;;0.70;0.60;;;;;;;;;;5014862;28;20608;-64
2023/02/04 14:08:05;;;;;;;1.77;0.82;;;;;;;;;;5014285;28;20619;-63
2023/02/04 14:10:31;;;;;;;2.00;0.60;;;;;;;;;;5015233;28;20613;-62
2023/02/04 14:12:59;;;;;;;1.35;0.70;;;;;;;;;;5015042;28;20644;-63
2023/02/04 14:15:25;;;;;;;0.80;0.65;;;;;;;;;;5014565;28;20193;-64
2023/02/04 14:17:50;;;;;;;1.40;0.60;;;;;;;;;;5014364;28;20178;-63
2023/02/04 14:20:17;;;;;;;1.55;0.68;;;;;;;;;;5014317;28;20648;-63
2023/02/04 14:22:42;;;;;;;0.68;0.50;;;;;;;;;;5013867;28;20158;-63
2023/02/04 14:25:09;;;;;;;0.93;0.60;;;;;;;;;;5014543;28;20275;-63
2023/02/04 14:27:37;;;;;;;0.75;0.60;;;;;;;;;;5014037;28;20249;-63
2023/02/04 14:30:04;;;;;;;0.50;0.50;;;;;;;;;;5014035;28;20182;-64
2023/02/04 14:32:31;;;;;;;1.67;0.40;;;;;;;;;;5014449;28;20217;-62
2023/02/04 14:34:57;;;;;;;0.77;0.77;;;;;;;;;;5015088;28;20182;-61
2023/02/04 14:37:27;;;;;;;1.77;0.60;;;;;;;;;;5014310;28;20299;-61
2023/02/04 14:39:53;;;;;;;0.65;0.60;;;;;;;;;;5022208;28;20178;-63
2023/02/04 14:42:19;;;;;;;0.70;0.63;;;;;;;;;;5023941;28;20170;-62